sensor_id;sensor_type;location;lat;lon;timestamp;P1;durP1;ratioP1;P2;durP2;ratioP2
12896;SDS011;6516;35.028;32.372;2023-01-05T00:01:48;16.17;;;8.05;;
12896;SDS011;6516;35.028;32.372;2023-01-05T00:04:18;14.77;;;8.17;;
12896;SDS011;6516;35.028;32.372;2023-01-05T00:06:46;15.48;;;7.93;;
12896;SDS011;6516;35.028;32.372;2023-01-05T00:09:15;14.25;;;7.95;;
12896;SDS011;6516;35.028;32.372;2023-01-05T00:11:44;15.48;;;8.30;;
12896;SDS011;6516;35.028;32.372;2023-01-05T00:14:30;13.35;;;7.32;;
12896;SDS011;6516;35.028;32.372;2023-01-05T00:17:16;14.07;;;7.23;;
12896;SDS011;6516;35.028;32.372;2023-01-05T00:20:04;13.93;;;7.40;;
12896;SDS011;6516;35.028;32.372;2023-01-05T00:22:57;15.10;;;7.45;;
12896;SDS011;6516;35.028;32.372;2023-01-05T00:25:26;13.88;;;7.82;;
12896;SDS011;6516;35.028;32.372;2023-01-05T00:27:56;14.68;;;6.55;;
12896;SDS011;6516;35.028;32.372;2023-01-05T00:30:24;14.57;;;7.23;;
12896;SDS011;6516;35.028;32.372;2023-01-05T00:32:55;15.20;;;7.22;;
12896;SDS011;6516;35.028;32.372;2023-01-05T00:35:24;12.18;;;6.93;;
12896;SDS011;6516;35.028;32.372;2023-01-05T00:37:52;16.80;;;6.85;;
12896;SDS011;6516;35.028;32.372;2023-01-05T00:40:20;16.98;;;7.22;;
12896;SDS011;6516;35.028;32.372;2023-01-05T00:42:49;14.03;;;7.07;;
12896;SDS011;6516;35.028;32.372;2023-01-05T00:45:16;12.40;;;6.90;;
12896;SDS011;6516;35.028;32.372;2023-01-05T00:47:46;15.15;;;7.50;;
12896;SDS011;6516;35.028;32.372;2023-01-05T00:50:16;12.90;;;6.82;;
12896;SDS011;6516;35.028;32.372;2023-01-05T00:52:46;13.52;;;7.35;;
12896;SDS011;6516;35.028;32.372;2023-01-05T00:55:14;14.90;;;7.47;;
12896;SDS011;6516;35.028;32.372;2023-01-05T00:57:42;18.30;;;8.60;;
12896;SDS011;6516;35.028;32.372;2023-01-05T01:00:12;13.38;;;6.97;;
12896;SDS011;6516;35.028;32.372;2023-01-05T01:02:43;13.18;;;6.72;;
12896;SDS011;6516;35.028;32.372;2023-01-05T01:05:11;12.65;;;6.75;;
12896;SDS011;6516;35.028;32.372;2023-01-05T01:07:39;12.53;;;6.60;;
12896;SDS011;6516;35.028;32.372;2023-01-05T01:10:10;12.00;;;6.95;;
12896;SDS011;6516;35.028;32.372;2023-01-05T01:12:38;13.70;;;6.82;;
12896;SDS011;6516;35.028;32.372;2023-01-05T01:15:07;12.82;;;6.90;;
12896;SDS011;6516;35.028;32.372;2023-01-05T01:17:36;13.02;;;6.63;;
12896;SDS011;6516;35.028;32.372;2023-01-05T01:20:04;13.17;;;6.30;;
12896;SDS011;6516;35.028;32.372;2023-01-05T01:22:33;12.82;;;6.57;;
12896;SDS011;6516;35.028;32.372;2023-01-05T01:25:01;11.35;;;5.93;;
12896;SDS011;6516;35.028;32.372;2023-01-05T01:27:31;12.38;;;6.63;;
12896;SDS011;6516;35.028;32.372;2023-01-05T01:29:59;12.05;;;6.18;;
12896;SDS011;6516;35.028;32.372;2023-01-05T01:32:27;10.93;;;6.00;;
12896;SDS011;6516;35.028;32.372;2023-01-05T01:34:54;10.15;;;5.70;;
12896;SDS011;6516;35.028;32.372;2023-01-05T01:37:23;11.27;;;6.05;;
12896;SDS011;6516;35.028;32.372;2023-01-05T01:39:50;11.45;;;6.22;;
12896;SDS011;6516;35.028;32.372;2023-01-05T01:42:19;12.57;;;5.97;;
12896;SDS011;6516;35.028;32.372;2023-01-05T01:44:59;9.33;;;5.47;;
12896;SDS011;6516;35.028;32.372;2023-01-05T01:47:32;11.20;;;5.95;;
12896;SDS011;6516;35.028;32.372;2023-01-05T01:50:07;10.57;;;5.78;;
12896;SDS011;6516;35.028;32.372;2023-01-05T01:52:40;11.73;;;5.22;;
12896;SDS011;6516;35.028;32.372;2023-01-05T01:55:11;12.25;;;5.63;;
12896;SDS011;6516;35.028;32.372;2023-01-05T01:57:40;10.83;;;5.20;;
12896;SDS011;6516;35.028;32.372;2023-01-05T02:00:12;13.98;;;5.50;;
12896;SDS011;6516;35.028;32.372;2023-01-05T02:02:40;9.50;;;4.45;;
12896;SDS011;6516;35.028;32.372;2023-01-05T02:05:10;12.88;;;5.15;;
12896;SDS011;6516;35.028;32.372;2023-01-05T02:07:41;10.63;;;4.80;;
12896;SDS011;6516;35.028;32.372;2023-01-05T02:10:13;12.47;;;5.40;;
12896;SDS011;6516;35.028;32.372;2023-01-05T02:12:52;12.77;;;5.30;;
12896;SDS011;6516;35.028;32.372;2023-01-05T02:15:34;10.05;;;4.40;;
12896;SDS011;6516;35.028;32.372;2023-01-05T02:18:15;8.63;;;4.57;;
12896;SDS011;6516;35.028;32.372;2023-01-05T02:20:59;9.57;;;4.63;;
12896;SDS011;6516;35.028;32.372;2023-01-05T02:24:04;8.83;;;4.60;;
12896;SDS011;6516;35.028;32.372;2023-01-05T02:27:05;12.02;;;4.22;;
12896;SDS011;6516;35.028;32.372;2023-01-05T02:30:03;9.82;;;4.50;;
12896;SDS011;6516;35.028;32.372;2023-01-05T02:33:28;11.80;;;4.88;;
12896;SDS011;6516;35.028;32.372;2023-01-05T02:36:33;13.50;;;5.30;;
12896;SDS011;6516;35.028;32.372;2023-01-05T02:39:09;8.33;;;4.57;;
12896;SDS011;6516;35.028;32.372;2023-01-05T02:41:45;10.57;;;5.00;;
12896;SDS011;6516;35.028;32.372;2023-01-05T02:44:20;11.27;;;4.90;;
12896;SDS011;6516;35.028;32.372;2023-01-05T02:46:59;11.77;;;4.88;;
12896;SDS011;6516;35.028;32.372;2023-01-05T02:49:29;11.57;;;5.20;;
12896;SDS011;6516;35.028;32.372;2023-01-05T02:52:04;13.27;;;5.30;;
12896;SDS011;6516;35.028;32.372;2023-01-05T02:54:36;11.52;;;4.97;;
12896;SDS011;6516;35.028;32.372;2023-01-05T02:57:10;11.77;;;5.20;;
12896;SDS011;6516;35.028;32.372;2023-01-05T02:59:43;13.02;;;5.80;;
12896;SDS011;6516;35.028;32.372;2023-01-05T03:02:20;10.50;;;5.30;;
12896;SDS011;6516;35.028;32.372;2023-01-05T03:04:54;12.03;;;6.20;;
12896;SDS011;6516;35.028;32.372;2023-01-05T03:07:29;13.63;;;5.63;;
12896;SDS011;6516;35.028;32.372;2023-01-05T03:10:00;10.75;;;5.70;;
12896;SDS011;6516;35.028;32.372;2023-01-05T03:12:49;12.65;;;5.80;;
12896;SDS011;6516;35.028;32.372;2023-01-05T03:15:39;11.77;;;6.13;;
12896;SDS011;6516;35.028;32.372;2023-01-05T03:18:12;13.10;;;6.07;;
12896;SDS011;6516;35.028;32.372;2023-01-05T03:20:45;11.60;;;6.10;;
12896;SDS011;6516;35.028;32.372;2023-01-05T03:23:17;10.88;;;6.15;;
12896;SDS011;6516;35.028;32.372;2023-01-05T03:26:05;13.65;;;6.35;;
12896;SDS011;6516;35.028;32.372;2023-01-05T03:28:54;14.00;;;6.47;;
12896;SDS011;6516;35.028;32.372;2023-01-05T03:31:43;17.27;;;6.57;;
12896;SDS011;6516;35.028;32.372;2023-01-05T03:34:38;12.20;;;6.53;;
12896;SDS011;6516;35.028;32.372;2023-01-05T03:37:30;12.82;;;6.43;;
12896;SDS011;6516;35.028;32.372;2023-01-05T03:40:02;10.68;;;5.93;;
12896;SDS011;6516;35.028;32.372;2023-01-05T03:42:37;12.25;;;6.03;;
12896;SDS011;6516;35.028;32.372;2023-01-05T03:45:06;15.37;;;7.50;;
12896;SDS011;6516;35.028;32.372;2023-01-05T03:47:36;13.57;;;6.35;;
12896;SDS011;6516;35.028;32.372;2023-01-05T03:50:07;13.27;;;6.72;;
12896;SDS011;6516;35.028;32.372;2023-01-05T03:52:36;14.27;;;6.70;;
12896;SDS011;6516;35.028;32.372;2023-01-05T03:55:04;12.50;;;6.70;;
12896;SDS011;6516;35.028;32.372;2023-01-05T03:57:32;16.40;;;7.10;;
12896;SDS011;6516;35.028;32.372;2023-01-05T04:00:00;13.20;;;7.30;;
12896;SDS011;6516;35.028;32.372;2023-01-05T04:02:29;15.60;;;7.57;;
12896;SDS011;6516;35.028;32.372;2023-01-05T04:04:57;12.95;;;6.80;;
12896;SDS011;6516;35.028;32.372;2023-01-05T04:07:27;11.50;;;7.10;;
12896;SDS011;6516;35.028;32.372;2023-01-05T04:09:54;16.57;;;7.43;;
12896;SDS011;6516;35.028;32.372;2023-01-05T04:12:22;14.30;;;7.38;;
12896;SDS011;6516;35.028;32.372;2023-01-05T04:14:50;14.07;;;7.15;;
12896;SDS011;6516;35.028;32.372;2023-01-05T04:17:18;14.52;;;7.65;;
12896;SDS011;6516;35.028;32.372;2023-01-05T04:19:46;12.20;;;7.00;;
12896;SDS011;6516;35.028;32.372;2023-01-05T04:22:14;15.33;;;8.23;;
12896;SDS011;6516;35.028;32.372;2023-01-05T04:24:43;15.90;;;7.82;;
12896;SDS011;6516;35.028;32.372;2023-01-05T04:27:12;13.98;;;7.57;;
12896;SDS011;6516;35.028;32.372;2023-01-05T04:29:39;14.45;;;7.57;;
12896;SDS011;6516;35.028;32.372;2023-01-05T04:32:07;14.95;;;7.18;;
12896;SDS011;6516;35.028;32.372;2023-01-05T04:34:35;13.90;;;6.63;;
12896;SDS011;6516;35.028;32.372;2023-01-05T04:37:02;14.63;;;7.28;;
12896;SDS011;6516;35.028;32.372;2023-01-05T04:39:30;13.20;;;7.40;;
12896;SDS011;6516;35.028;32.372;2023-01-05T04:42:00;13.10;;;6.97;;
12896;SDS011;6516;35.028;32.372;2023-01-05T04:44:28;14.85;;;7.72;;
12896;SDS011;6516;35.028;32.372;2023-01-05T04:46:56;16.57;;;7.00;;
12896;SDS011;6516;35.028;32.372;2023-01-05T04:49:25;16.67;;;7.13;;
12896;SDS011;6516;35.028;32.372;2023-01-05T04:51:53;12.85;;;7.25;;
12896;SDS011;6516;35.028;32.372;2023-01-05T04:54:21;13.95;;;6.90;;
12896;SDS011;6516;35.028;32.372;2023-01-05T04:56:49;18.40;;;7.70;;
12896;SDS011;6516;35.028;32.372;2023-01-05T04:59:18;17.83;;;7.30;;
12896;SDS011;6516;35.028;32.372;2023-01-05T05:01:46;13.10;;;6.55;;
12896;SDS011;6516;35.028;32.372;2023-01-05T05:04:14;13.32;;;7.25;;
12896;SDS011;6516;35.028;32.372;2023-01-05T05:06:42;14.05;;;7.25;;
12896;SDS011;6516;35.028;32.372;2023-01-05T05:09:10;12.95;;;6.90;;
12896;SDS011;6516;35.028;32.372;2023-01-05T05:11:37;14.47;;;7.43;;
12896;SDS011;6516;35.028;32.372;2023-01-05T05:14:05;13.55;;;7.30;;
12896;SDS011;6516;35.028;32.372;2023-01-05T05:16:34;12.65;;;6.80;;
12896;SDS011;6516;35.028;32.372;2023-01-05T05:19:02;12.98;;;6.70;;
12896;SDS011;6516;35.028;32.372;2023-01-05T05:21:30;14.32;;;7.05;;
12896;SDS011;6516;35.028;32.372;2023-01-05T05:23:58;13.47;;;7.40;;
12896;SDS011;6516;35.028;32.372;2023-01-05T05:26:25;17.55;;;7.60;;
12896;SDS011;6516;35.028;32.372;2023-01-05T05:28:53;12.98;;;6.72;;
12896;SDS011;6516;35.028;32.372;2023-01-05T05:31:23;13.70;;;7.18;;
12896;SDS011;6516;35.028;32.372;2023-01-05T05:33:52;14.05;;;7.05;;
12896;SDS011;6516;35.028;32.372;2023-01-05T05:36:20;14.10;;;7.13;;
12896;SDS011;6516;35.028;32.372;2023-01-05T05:38:48;15.48;;;7.18;;
12896;SDS011;6516;35.028;32.372;2023-01-05T05:41:16;12.68;;;6.57;;
12896;SDS011;6516;35.028;32.372;2023-01-05T05:43:44;12.75;;;7.30;;
12896;SDS011;6516;35.028;32.372;2023-01-05T05:46:12;14.77;;;7.20;;
12896;SDS011;6516;35.028;32.372;2023-01-05T05:48:39;12.63;;;6.77;;
12896;SDS011;6516;35.028;32.372;2023-01-05T05:51:09;13.63;;;7.10;;
12896;SDS011;6516;35.028;32.372;2023-01-05T05:53:37;13.02;;;7.15;;
12896;SDS011;6516;35.028;32.372;2023-01-05T05:56:05;11.65;;;6.80;;
12896;SDS011;6516;35.028;32.372;2023-01-05T05:58:33;11.02;;;6.95;;
12896;SDS011;6516;35.028;32.372;2023-01-05T06:01:01;12.20;;;6.83;;
12896;SDS011;6516;35.028;32.372;2023-01-05T06:03:29;13.02;;;6.68;;
12896;SDS011;6516;35.028;32.372;2023-01-05T06:05:57;15.18;;;7.18;;
12896;SDS011;6516;35.028;32.372;2023-01-05T06:08:27;12.35;;;7.63;;
12896;SDS011;6516;35.028;32.372;2023-01-05T06:10:55;14.80;;;7.68;;
12896;SDS011;6516;35.028;32.372;2023-01-05T06:13:24;13.03;;;7.83;;
12896;SDS011;6516;35.028;32.372;2023-01-05T06:15:52;12.60;;;7.35;;
12896;SDS011;6516;35.028;32.372;2023-01-05T06:18:20;15.48;;;7.65;;
12896;SDS011;6516;35.028;32.372;2023-01-05T06:20:48;13.68;;;7.40;;
12896;SDS011;6516;35.028;32.372;2023-01-05T06:23:16;12.85;;;7.80;;
12896;SDS011;6516;35.028;32.372;2023-01-05T06:25:46;12.77;;;7.00;;
12896;SDS011;6516;35.028;32.372;2023-01-05T06:28:13;14.20;;;7.75;;
12896;SDS011;6516;35.028;32.372;2023-01-05T06:30:41;14.20;;;8.23;;
12896;SDS011;6516;35.028;32.372;2023-01-05T06:33:09;14.63;;;8.20;;
12896;SDS011;6516;35.028;32.372;2023-01-05T06:35:37;14.00;;;7.95;;
12896;SDS011;6516;35.028;32.372;2023-01-05T06:38:05;13.03;;;7.83;;
12896;SDS011;6516;35.028;32.372;2023-01-05T06:40:35;14.73;;;8.05;;
12896;SDS011;6516;35.028;32.372;2023-01-05T06:43:06;13.52;;;7.95;;
12896;SDS011;6516;35.028;32.372;2023-01-05T06:45:34;16.10;;;7.82;;
12896;SDS011;6516;35.028;32.372;2023-01-05T06:48:02;13.65;;;7.80;;
12896;SDS011;6516;35.028;32.372;2023-01-05T06:50:30;13.00;;;7.30;;
12896;SDS011;6516;35.028;32.372;2023-01-05T06:52:58;13.20;;;7.53;;
12896;SDS011;6516;35.028;32.372;2023-01-05T06:55:26;12.32;;;7.40;;
12896;SDS011;6516;35.028;32.372;2023-01-05T06:57:54;15.13;;;8.45;;
12896;SDS011;6516;35.028;32.372;2023-01-05T07:00:24;13.93;;;8.10;;
12896;SDS011;6516;35.028;32.372;2023-01-05T07:02:51;14.70;;;7.73;;
12896;SDS011;6516;35.028;32.372;2023-01-05T07:05:19;12.27;;;7.68;;
12896;SDS011;6516;35.028;32.372;2023-01-05T07:07:47;14.35;;;7.93;;
12896;SDS011;6516;35.028;32.372;2023-01-05T07:10:15;15.05;;;8.02;;
12896;SDS011;6516;35.028;32.372;2023-01-05T07:12:43;13.73;;;8.10;;
12896;SDS011;6516;35.028;32.372;2023-01-05T07:15:10;13.87;;;8.47;;
12896;SDS011;6516;35.028;32.372;2023-01-05T07:17:40;16.00;;;8.02;;
12896;SDS011;6516;35.028;32.372;2023-01-05T07:20:08;16.05;;;8.20;;
12896;SDS011;6516;35.028;32.372;2023-01-05T07:22:36;12.40;;;8.23;;
12896;SDS011;6516;35.028;32.372;2023-01-05T07:25:04;12.15;;;7.35;;
12896;SDS011;6516;35.028;32.372;2023-01-05T07:27:33;13.03;;;7.93;;
12896;SDS011;6516;35.028;32.372;2023-01-05T07:30:01;16.40;;;8.05;;
12896;SDS011;6516;35.028;32.372;2023-01-05T07:32:30;13.57;;;7.65;;
12896;SDS011;6516;35.028;32.372;2023-01-05T07:34:59;14.43;;;7.72;;
12896;SDS011;6516;35.028;32.372;2023-01-05T07:37:27;12.23;;;7.13;;
12896;SDS011;6516;35.028;32.372;2023-01-05T07:39:54;12.17;;;6.87;;
12896;SDS011;6516;35.028;32.372;2023-01-05T07:42:22;11.93;;;6.80;;
12896;SDS011;6516;35.028;32.372;2023-01-05T07:44:50;10.52;;;6.45;;
12896;SDS011;6516;35.028;32.372;2023-01-05T07:47:18;11.70;;;6.68;;
12896;SDS011;6516;35.028;32.372;2023-01-05T07:49:46;12.25;;;6.47;;
12896;SDS011;6516;35.028;32.372;2023-01-05T07:52:16;10.90;;;6.50;;
12896;SDS011;6516;35.028;32.372;2023-01-05T07:54:44;14.60;;;6.78;;
12896;SDS011;6516;35.028;32.372;2023-01-05T07:57:11;18.60;;;7.05;;
12896;SDS011;6516;35.028;32.372;2023-01-05T07:59:39;12.50;;;7.03;;
12896;SDS011;6516;35.028;32.372;2023-01-05T08:02:07;13.27;;;6.68;;
12896;SDS011;6516;35.028;32.372;2023-01-05T08:04:36;13.23;;;6.67;;
12896;SDS011;6516;35.028;32.372;2023-01-05T08:07:04;10.98;;;6.68;;
12896;SDS011;6516;35.028;32.372;2023-01-05T08:09:36;11.77;;;7.07;;
12896;SDS011;6516;35.028;32.372;2023-01-05T08:12:22;13.45;;;6.75;;
12896;SDS011;6516;35.028;32.372;2023-01-05T08:14:50;15.35;;;6.90;;
12896;SDS011;6516;35.028;32.372;2023-01-05T08:17:17;14.07;;;7.17;;
12896;SDS011;6516;35.028;32.372;2023-01-05T08:19:45;12.75;;;7.10;;
12896;SDS011;6516;35.028;32.372;2023-01-05T08:22:14;12.15;;;6.82;;
12896;SDS011;6516;35.028;32.372;2023-01-05T08:24:44;13.18;;;6.82;;
12896;SDS011;6516;35.028;32.372;2023-01-05T08:27:12;13.48;;;6.40;;
12896;SDS011;6516;35.028;32.372;2023-01-05T08:29:40;12.50;;;6.83;;
12896;SDS011;6516;35.028;32.372;2023-01-05T08:32:08;13.25;;;6.63;;
12896;SDS011;6516;35.028;32.372;2023-01-05T08:34:36;11.73;;;6.75;;
12896;SDS011;6516;35.028;32.372;2023-01-05T08:37:03;10.43;;;6.85;;
12896;SDS011;6516;35.028;32.372;2023-01-05T08:39:31;11.82;;;6.22;;
12896;SDS011;6516;35.028;32.372;2023-01-05T08:42:01;9.70;;;6.33;;
12896;SDS011;6516;35.028;32.372;2023-01-05T08:44:29;14.15;;;6.60;;
12896;SDS011;6516;35.028;32.372;2023-01-05T08:46:57;12.40;;;6.30;;
12896;SDS011;6516;35.028;32.372;2023-01-05T08:49:25;10.43;;;6.25;;
12896;SDS011;6516;35.028;32.372;2023-01-05T08:51:53;12.07;;;6.50;;
12896;SDS011;6516;35.028;32.372;2023-01-05T08:54:20;11.47;;;6.43;;
12896;SDS011;6516;35.028;32.372;2023-01-05T08:56:48;11.77;;;6.80;;
12896;SDS011;6516;35.028;32.372;2023-01-05T08:59:18;11.85;;;6.47;;
12896;SDS011;6516;35.028;32.372;2023-01-05T09:01:47;15.55;;;6.60;;
12896;SDS011;6516;35.028;32.372;2023-01-05T09:04:14;12.65;;;6.28;;
12896;SDS011;6516;35.028;32.372;2023-01-05T09:06:42;12.67;;;6.13;;
12896;SDS011;6516;35.028;32.372;2023-01-05T09:09:10;12.80;;;6.07;;
12896;SDS011;6516;35.028;32.372;2023-01-05T09:11:38;14.32;;;6.07;;
12896;SDS011;6516;35.028;32.372;2023-01-05T09:14:06;11.05;;;5.82;;
12896;SDS011;6516;35.028;32.372;2023-01-05T09:16:40;13.27;;;6.05;;
12896;SDS011;6516;35.028;32.372;2023-01-05T09:19:07;12.40;;;5.80;;
12896;SDS011;6516;35.028;32.372;2023-01-05T09:21:36;10.45;;;5.85;;
12896;SDS011;6516;35.028;32.372;2023-01-05T09:24:05;11.63;;;5.82;;
12896;SDS011;6516;35.028;32.372;2023-01-05T09:26:33;12.88;;;6.35;;
12896;SDS011;6516;35.028;32.372;2023-01-05T09:29:00;13.30;;;6.47;;
12896;SDS011;6516;35.028;32.372;2023-01-05T09:31:28;11.00;;;6.03;;
12896;SDS011;6516;35.028;32.372;2023-01-05T09:33:58;10.75;;;5.88;;
12896;SDS011;6516;35.028;32.372;2023-01-05T09:36:26;14.07;;;5.78;;
12896;SDS011;6516;35.028;32.372;2023-01-05T09:38:53;10.40;;;5.80;;
12896;SDS011;6516;35.028;32.372;2023-01-05T09:41:22;12.07;;;5.97;;
12896;SDS011;6516;35.028;32.372;2023-01-05T09:43:57;10.33;;;5.80;;
12896;SDS011;6516;35.028;32.372;2023-01-05T09:46:31;9.45;;;5.50;;
12896;SDS011;6516;35.028;32.372;2023-01-05T09:49:05;9.75;;;5.90;;
12896;SDS011;6516;35.028;32.372;2023-01-05T09:51:39;9.63;;;5.60;;
12896;SDS011;6516;35.028;32.372;2023-01-05T09:54:09;11.43;;;5.45;;
12896;SDS011;6516;35.028;32.372;2023-01-05T09:56:43;12.63;;;6.13;;
12896;SDS011;6516;35.028;32.372;2023-01-05T09:59:13;8.98;;;5.55;;
12896;SDS011;6516;35.028;32.372;2023-01-05T10:01:44;10.18;;;5.47;;
12896;SDS011;6516;35.028;32.372;2023-01-05T10:04:17;10.45;;;5.70;;
12896;SDS011;6516;35.028;32.372;2023-01-05T10:06:49;10.77;;;5.50;;
12896;SDS011;6516;35.028;32.372;2023-01-05T10:09:24;14.20;;;5.57;;
12896;SDS011;6516;35.028;32.372;2023-01-05T10:11:57;10.95;;;5.88;;
12896;SDS011;6516;35.028;32.372;2023-01-05T10:14:49;11.48;;;5.72;;
12896;SDS011;6516;35.028;32.372;2023-01-05T10:17:23;10.35;;;6.03;;
12896;SDS011;6516;35.028;32.372;2023-01-05T10:19:55;11.27;;;6.22;;
12896;SDS011;6516;35.028;32.372;2023-01-05T10:22:30;10.07;;;5.90;;
12896;SDS011;6516;35.028;32.372;2023-01-05T10:25:08;13.43;;;6.45;;
12896;SDS011;6516;35.028;32.372;2023-01-05T10:27:48;11.00;;;5.90;;
12896;SDS011;6516;35.028;32.372;2023-01-05T10:30:24;14.10;;;6.60;;
12896;SDS011;6516;35.028;32.372;2023-01-05T10:33:08;12.25;;;6.97;;
12896;SDS011;6516;35.028;32.372;2023-01-05T10:35:50;13.03;;;6.63;;
12896;SDS011;6516;35.028;32.372;2023-01-05T10:38:29;11.13;;;6.35;;
12896;SDS011;6516;35.028;32.372;2023-01-05T10:41:11;13.95;;;6.70;;
12896;SDS011;6516;35.028;32.372;2023-01-05T10:43:57;13.23;;;6.63;;
12896;SDS011;6516;35.028;32.372;2023-01-05T10:46:51;14.02;;;6.55;;
12896;SDS011;6516;35.028;32.372;2023-01-05T10:49:19;11.87;;;7.00;;
12896;SDS011;6516;35.028;32.372;2023-01-05T10:51:53;12.68;;;7.07;;
12896;SDS011;6516;35.028;32.372;2023-01-05T10:54:28;13.25;;;6.82;;
12896;SDS011;6516;35.028;32.372;2023-01-05T10:57:29;13.68;;;6.80;;
12896;SDS011;6516;35.028;32.372;2023-01-05T11:00:08;14.75;;;7.50;;
12896;SDS011;6516;35.028;32.372;2023-01-05T11:02:41;13.40;;;6.97;;
12896;SDS011;6516;35.028;32.372;2023-01-05T11:05:19;13.70;;;7.40;;
12896;SDS011;6516;35.028;32.372;2023-01-05T11:08:00;14.05;;;7.20;;
12896;SDS011;6516;35.028;32.372;2023-01-05T11:10:30;12.50;;;7.05;;
12896;SDS011;6516;35.028;32.372;2023-01-05T11:13:02;14.30;;;7.07;;
12896;SDS011;6516;35.028;32.372;2023-01-05T11:15:32;11.57;;;6.77;;
12896;SDS011;6516;35.028;32.372;2023-01-05T11:18:07;12.32;;;6.45;;
12896;SDS011;6516;35.028;32.372;2023-01-05T11:21:05;11.40;;;6.55;;
12896;SDS011;6516;35.028;32.372;2023-01-05T11:23:38;11.70;;;6.57;;
12896;SDS011;6516;35.028;32.372;2023-01-05T11:26:28;11.57;;;6.22;;
12896;SDS011;6516;35.028;32.372;2023-01-05T11:28:59;10.40;;;6.27;;
12896;SDS011;6516;35.028;32.372;2023-01-05T11:31:46;12.23;;;6.38;;
12896;SDS011;6516;35.028;32.372;2023-01-05T11:34:32;11.60;;;6.03;;
12896;SDS011;6516;35.028;32.372;2023-01-05T11:37:05;11.05;;;5.85;;
12896;SDS011;6516;35.028;32.372;2023-01-05T11:39:49;10.73;;;6.35;;
12896;SDS011;6516;35.028;32.372;2023-01-05T11:42:20;12.43;;;6.63;;
12896;SDS011;6516;35.028;32.372;2023-01-05T11:44:56;11.60;;;6.75;;
12896;SDS011;6516;35.028;32.372;2023-01-05T11:47:27;13.32;;;6.47;;
12896;SDS011;6516;35.028;32.372;2023-01-05T11:50:01;16.70;;;6.78;;
12896;SDS011;6516;35.028;32.372;2023-01-05T11:52:32;12.05;;;6.35;;
12896;SDS011;6516;35.028;32.372;2023-01-05T12:07:31;13.50;;;6.65;;
12896;SDS011;6516;35.028;32.372;2023-01-05T12:10:03;16.07;;;6.60;;
12896;SDS011;6516;35.028;32.372;2023-01-05T12:13:01;12.10;;;6.25;;
12896;SDS011;6516;35.028;32.372;2023-01-05T12:18:46;12.45;;;6.60;;
12896;SDS011;6516;35.028;32.372;2023-01-05T12:21:34;12.40;;;6.40;;
12896;SDS011;6516;35.028;32.372;2023-01-05T12:27:20;10.50;;;6.22;;
12896;SDS011;6516;35.028;32.372;2023-01-05T12:30:02;13.07;;;6.38;;
12896;SDS011;6516;35.028;32.372;2023-01-05T12:33:06;13.52;;;5.95;;
12896;SDS011;6516;35.028;32.372;2023-01-05T12:36:03;12.70;;;6.32;;
12896;SDS011;6516;35.028;32.372;2023-01-05T12:38:46;13.07;;;6.00;;
12896;SDS011;6516;35.028;32.372;2023-01-05T12:45:15;12.55;;;6.65;;
12896;SDS011;6516;35.028;32.372;2023-01-05T12:48:10;14.43;;;6.50;;
12896;SDS011;6516;35.028;32.372;2023-01-05T12:50:44;12.52;;;6.28;;
12896;SDS011;6516;35.028;32.372;2023-01-05T12:53:22;14.73;;;6.37;;
12896;SDS011;6516;35.028;32.372;2023-01-05T12:56:01;10.68;;;6.43;;
12896;SDS011;6516;35.028;32.372;2023-01-05T12:58:39;12.48;;;6.93;;
12896;SDS011;6516;35.028;32.372;2023-01-05T13:01:18;13.23;;;6.88;;
12896;SDS011;6516;35.028;32.372;2023-01-05T13:03:54;13.07;;;6.97;;
12896;SDS011;6516;35.028;32.372;2023-01-05T13:06:29;15.07;;;7.37;;
12896;SDS011;6516;35.028;32.372;2023-01-05T13:09:02;11.65;;;6.97;;
12896;SDS011;6516;35.028;32.372;2023-01-05T13:11:39;16.92;;;7.43;;
12896;SDS011;6516;35.028;32.372;2023-01-05T13:14:14;12.45;;;7.28;;
12896;SDS011;6516;35.028;32.372;2023-01-05T13:16:47;16.45;;;7.32;;
12896;SDS011;6516;35.028;32.372;2023-01-05T13:19:22;15.37;;;7.73;;
12896;SDS011;6516;35.028;32.372;2023-01-05T13:21:54;19.80;;;7.95;;
12896;SDS011;6516;35.028;32.372;2023-01-05T13:24:25;14.40;;;7.43;;
12896;SDS011;6516;35.028;32.372;2023-01-05T13:26:58;15.93;;;8.35;;
12896;SDS011;6516;35.028;32.372;2023-01-05T13:29:29;16.42;;;7.55;;
12896;SDS011;6516;35.028;32.372;2023-01-05T13:35:05;15.07;;;7.53;;
12896;SDS011;6516;35.028;32.372;2023-01-05T13:38:07;16.13;;;7.75;;
12896;SDS011;6516;35.028;32.372;2023-01-05T13:41:23;18.58;;;8.55;;
12896;SDS011;6516;35.028;32.372;2023-01-05T13:44:20;17.02;;;8.25;;
12896;SDS011;6516;35.028;32.372;2023-01-05T13:47:17;15.67;;;7.90;;
12896;SDS011;6516;35.028;32.372;2023-01-05T13:50:01;14.35;;;8.07;;
12896;SDS011;6516;35.028;32.372;2023-01-05T13:53:10;13.70;;;7.25;;
12896;SDS011;6516;35.028;32.372;2023-01-05T13:55:44;14.82;;;7.38;;
12896;SDS011;6516;35.028;32.372;2023-01-05T13:58:30;14.93;;;7.70;;
12896;SDS011;6516;35.028;32.372;2023-01-05T14:01:12;14.77;;;8.10;;
12896;SDS011;6516;35.028;32.372;2023-01-05T14:03:48;15.35;;;7.97;;
12896;SDS011;6516;35.028;32.372;2023-01-05T14:06:20;15.70;;;8.18;;
12896;SDS011;6516;35.028;32.372;2023-01-05T14:08:52;14.50;;;8.27;;
12896;SDS011;6516;35.028;32.372;2023-01-05T14:11:24;15.85;;;8.20;;
12896;SDS011;6516;35.028;32.372;2023-01-05T14:13:54;14.73;;;7.70;;
12896;SDS011;6516;35.028;32.372;2023-01-05T14:19:23;17.42;;;8.23;;
12896;SDS011;6516;35.028;32.372;2023-01-05T14:28:19;15.30;;;8.40;;
12896;SDS011;6516;35.028;32.372;2023-01-05T14:34:15;15.05;;;8.15;;
12896;SDS011;6516;35.028;32.372;2023-01-05T14:36:48;13.20;;;8.02;;
12896;SDS011;6516;35.028;32.372;2023-01-05T14:39:30;13.82;;;8.07;;
12896;SDS011;6516;35.028;32.372;2023-01-05T14:42:14;14.87;;;7.90;;
12896;SDS011;6516;35.028;32.372;2023-01-05T14:44:56;17.98;;;9.38;;
12896;SDS011;6516;35.028;32.372;2023-01-05T14:47:33;17.17;;;9.30;;
12896;SDS011;6516;35.028;32.372;2023-01-05T14:50:19;13.40;;;8.73;;
12896;SDS011;6516;35.028;32.372;2023-01-05T14:53:05;18.55;;;8.93;;
12896;SDS011;6516;35.028;32.372;2023-01-05T14:55:40;15.90;;;8.77;;
12896;SDS011;6516;35.028;32.372;2023-01-05T15:01:48;18.73;;;9.05;;
12896;SDS011;6516;35.028;32.372;2023-01-05T15:04:20;13.52;;;8.45;;
12896;SDS011;6516;35.028;32.372;2023-01-05T15:07:01;15.60;;;8.45;;
12896;SDS011;6516;35.028;32.372;2023-01-05T15:09:51;19.50;;;8.83;;
12896;SDS011;6516;35.028;32.372;2023-01-05T15:12:45;15.48;;;9.40;;
12896;SDS011;6516;35.028;32.372;2023-01-05T15:15:35;15.20;;;9.02;;
12896;SDS011;6516;35.028;32.372;2023-01-05T15:24:43;14.43;;;9.23;;
12896;SDS011;6516;35.028;32.372;2023-01-05T15:27:42;18.80;;;9.23;;
12896;SDS011;6516;35.028;32.372;2023-01-05T15:30:43;17.02;;;9.32;;
12896;SDS011;6516;35.028;32.372;2023-01-05T15:33:34;18.60;;;9.82;;
12896;SDS011;6516;35.028;32.372;2023-01-05T15:36:11;18.73;;;9.50;;
12896;SDS011;6516;35.028;32.372;2023-01-05T15:38:49;19.90;;;10.47;;
12896;SDS011;6516;35.028;32.372;2023-01-05T15:41:20;17.23;;;9.45;;
12896;SDS011;6516;35.028;32.372;2023-01-05T15:43:50;20.33;;;9.45;;
12896;SDS011;6516;35.028;32.372;2023-01-05T15:46:19;20.08;;;9.80;;
12896;SDS011;6516;35.028;32.372;2023-01-05T15:48:54;18.88;;;9.77;;
12896;SDS011;6516;35.028;32.372;2023-01-05T15:51:22;15.80;;;9.27;;
12896;SDS011;6516;35.028;32.372;2023-01-05T15:53:53;19.13;;;9.57;;
12896;SDS011;6516;35.028;32.372;2023-01-05T15:56:25;20.52;;;9.35;;
12896;SDS011;6516;35.028;32.372;2023-01-05T15:58:57;18.90;;;9.10;;
12896;SDS011;6516;35.028;32.372;2023-01-05T16:01:25;16.95;;;10.00;;
12896;SDS011;6516;35.028;32.372;2023-01-05T16:04:04;18.03;;;9.63;;